sensor_id;sensor_type;location;lat;lon;timestamp;P1;durP1;ratioP1;P2;durP2;ratioP2
40659;SDS011;26753;45.544;9.232;2024-01-30T00:01:33;78.97;;;36.45;;
40659;SDS011;26753;45.544;9.232;2024-01-30T00:04:02;74.25;;;34.58;;
40659;SDS011;26753;45.544;9.232;2024-01-30T00:06:34;72.13;;;34.08;;
40659;SDS011;26753;45.544;9.232;2024-01-30T00:12:14;71.13;;;35.63;;
40659;SDS011;26753;45.544;9.232;2024-01-30T00:17:30;68.45;;;35.40;;
40659;SDS011;26753;45.544;9.232;2024-01-30T00:32:29;63.58;;;33.55;;
40659;SDS011;26753;45.544;9.232;2024-01-30T00:34:58;60.78;;;32.28;;
40659;SDS011;26753;45.544;9.232;2024-01-30T00:56:04;51.30;;;28.27;;
40659;SDS011;26753;45.544;9.232;2024-01-30T00:58:33;53.05;;;28.55;;
40659;SDS011;26753;45.544;9.232;2024-01-30T01:04:46;47.08;;;27.55;;
40659;SDS011;26753;45.544;9.232;2024-01-30T01:08:11;47.90;;;27.92;;
40659;SDS011;26753;45.544;9.232;2024-01-30T01:10:50;44.67;;;26.45;;
40659;SDS011;26753;45.544;9.232;2024-01-30T01:41:40;50.08;;;27.65;;
40659;SDS011;26753;45.544;9.232;2024-01-30T01:44:09;51.10;;;28.10;;
40659;SDS011;26753;45.544;9.232;2024-01-30T02:21:49;61.53;;;33.00;;
40659;SDS011;26753;45.544;9.232;2024-01-30T02:24:15;57.85;;;33.08;;
40659;SDS011;26753;45.544;9.232;2024-01-30T02:26:41;60.83;;;33.83;;
40659;SDS011;26753;45.544;9.232;2024-01-30T02:29:08;61.70;;;34.00;;
40659;SDS011;26753;45.544;9.232;2024-01-30T02:31:34;59.17;;;33.28;;
40659;SDS011;26753;45.544;9.232;2024-01-30T02:34:00;62.13;;;34.35;;
40659;SDS011;26753;45.544;9.232;2024-01-30T03:22:51;57.65;;;31.55;;
40659;SDS011;26753;45.544;9.232;2024-01-30T03:25:20;61.20;;;31.33;;
40659;SDS011;26753;45.544;9.232;2024-01-30T03:27:49;60.80;;;32.88;;
40659;SDS011;26753;45.544;9.232;2024-01-30T03:30:18;61.72;;;32.97;;
40659;SDS011;26753;45.544;9.232;2024-01-30T03:36:07;61.85;;;32.90;;
40659;SDS011;26753;45.544;9.232;2024-01-30T03:41:47;64.45;;;32.00;;
40659;SDS011;26753;45.544;9.232;2024-01-30T03:44:28;63.70;;;32.72;;
40659;SDS011;26753;45.544;9.232;2024-01-30T03:53:06;64.70;;;33.08;;
40659;SDS011;26753;45.544;9.232;2024-01-30T04:02:10;62.70;;;31.52;;
40659;SDS011;26753;45.544;9.232;2024-01-30T04:08:06;59.63;;;31.95;;
40659;SDS011;26753;45.544;9.232;2024-01-30T04:10:55;63.53;;;32.65;;
40659;SDS011;26753;45.544;9.232;2024-01-30T04:23:24;63.58;;;32.17;;
40659;SDS011;26753;45.544;9.232;2024-01-30T04:28:40;62.42;;;32.25;;
40659;SDS011;26753;45.544;9.232;2024-01-30T04:31:10;61.08;;;31.75;;
40659;SDS011;26753;45.544;9.232;2024-01-30T04:33:36;59.10;;;30.83;;
40659;SDS011;26753;45.544;9.232;2024-01-30T04:36:08;61.10;;;31.67;;
40659;SDS011;26753;45.544;9.232;2024-01-30T04:38:39;57.30;;;31.05;;
40659;SDS011;26753;45.544;9.232;2024-01-30T04:41:05;57.55;;;30.98;;
40659;SDS011;26753;45.544;9.232;2024-01-30T04:43:32;60.60;;;32.10;;
40659;SDS011;26753;45.544;9.232;2024-01-30T04:45:58;57.22;;;31.75;;
40659;SDS011;26753;45.544;9.232;2024-01-30T04:48:24;58.80;;;30.67;;
40659;SDS011;26753;45.544;9.232;2024-01-30T04:50:50;58.05;;;31.25;;
40659;SDS011;26753;45.544;9.232;2024-01-30T04:53:16;56.38;;;31.20;;
40659;SDS011;26753;45.544;9.232;2024-01-30T04:55:43;56.10;;;30.45;;
40659;SDS011;26753;45.544;9.232;2024-01-30T04:58:09;54.85;;;30.25;;
40659;SDS011;26753;45.544;9.232;2024-01-30T05:00:35;56.15;;;29.52;;
40659;SDS011;26753;45.544;9.232;2024-01-30T05:03:01;56.45;;;30.48;;
40659;SDS011;26753;45.544;9.232;2024-01-30T05:05:27;56.00;;;29.42;;
40659;SDS011;26753;45.544;9.232;2024-01-30T05:07:53;57.50;;;29.98;;
40659;SDS011;26753;45.544;9.232;2024-01-30T05:10:20;60.22;;;31.35;;
40659;SDS011;26753;45.544;9.232;2024-01-30T05:12:46;62.35;;;30.55;;
40659;SDS011;26753;45.544;9.232;2024-01-30T05:15:12;58.72;;;30.35;;
40659;SDS011;26753;45.544;9.232;2024-01-30T05:17:38;62.38;;;31.30;;
40659;SDS011;26753;45.544;9.232;2024-01-30T05:20:05;64.57;;;30.52;;
40659;SDS011;26753;45.544;9.232;2024-01-30T05:22:31;59.75;;;30.42;;
40659;SDS011;26753;45.544;9.232;2024-01-30T05:24:57;60.67;;;30.58;;
40659;SDS011;26753;45.544;9.232;2024-01-30T05:27:23;58.75;;;30.50;;
40659;SDS011;26753;45.544;9.232;2024-01-30T05:29:49;55.58;;;29.80;;
40659;SDS011;26753;45.544;9.232;2024-01-30T05:32:16;59.97;;;31.35;;
40659;SDS011;26753;45.544;9.232;2024-01-30T05:34:42;62.17;;;31.92;;
40659;SDS011;26753;45.544;9.232;2024-01-30T05:37:08;61.08;;;32.25;;
40659;SDS011;26753;45.544;9.232;2024-01-30T05:39:53;61.63;;;32.17;;
40659;SDS011;26753;45.544;9.232;2024-01-30T05:42:19;58.42;;;30.75;;
40659;SDS011;26753;45.544;9.232;2024-01-30T05:44:45;64.07;;;32.83;;
40659;SDS011;26753;45.544;9.232;2024-01-30T05:47:11;65.03;;;32.55;;
40659;SDS011;26753;45.544;9.232;2024-01-30T05:49:37;64.88;;;33.35;;
40659;SDS011;26753;45.544;9.232;2024-01-30T05:52:04;70.65;;;33.72;;
40659;SDS011;26753;45.544;9.232;2024-01-30T05:54:30;64.15;;;33.30;;
40659;SDS011;26753;45.544;9.232;2024-01-30T05:56:56;66.82;;;34.42;;
40659;SDS011;26753;45.544;9.232;2024-01-30T05:59:23;66.75;;;34.78;;
40659;SDS011;26753;45.544;9.232;2024-01-30T06:01:49;68.20;;;34.72;;
40659;SDS011;26753;45.544;9.232;2024-01-30T06:04:15;65.20;;;34.22;;
40659;SDS011;26753;45.544;9.232;2024-01-30T06:06:41;68.20;;;34.97;;
40659;SDS011;26753;45.544;9.232;2024-01-30T06:09:07;70.88;;;34.80;;
40659;SDS011;26753;45.544;9.232;2024-01-30T06:11:42;69.88;;;35.30;;
40659;SDS011;26753;45.544;9.232;2024-01-30T06:14:08;69.07;;;33.42;;
40659;SDS011;26753;45.544;9.232;2024-01-30T06:16:34;68.15;;;34.40;;
40659;SDS011;26753;45.544;9.232;2024-01-30T06:19:00;68.07;;;34.78;;
40659;SDS011;26753;45.544;9.232;2024-01-30T06:21:26;65.80;;;34.08;;
40659;SDS011;26753;45.544;9.232;2024-01-30T06:23:52;64.70;;;33.60;;
40659;SDS011;26753;45.544;9.232;2024-01-30T06:26:18;63.70;;;33.22;;
40659;SDS011;26753;45.544;9.232;2024-01-30T06:28:44;67.18;;;34.38;;
40659;SDS011;26753;45.544;9.232;2024-01-30T06:31:11;68.05;;;34.13;;
40659;SDS011;26753;45.544;9.232;2024-01-30T06:33:38;66.03;;;34.72;;
40659;SDS011;26753;45.544;9.232;2024-01-30T06:36:06;65.75;;;34.38;;
40659;SDS011;26753;45.544;9.232;2024-01-30T06:38:32;68.50;;;33.25;;
40659;SDS011;26753;45.544;9.232;2024-01-30T06:40:58;68.60;;;34.75;;
40659;SDS011;26753;45.544;9.232;2024-01-30T06:43:27;63.35;;;32.80;;
40659;SDS011;26753;45.544;9.232;2024-01-30T06:45:53;72.88;;;35.13;;
40659;SDS011;26753;45.544;9.232;2024-01-30T06:48:19;65.70;;;34.65;;
40659;SDS011;26753;45.544;9.232;2024-01-30T06:50:45;70.47;;;34.33;;
40659;SDS011;26753;45.544;9.232;2024-01-30T06:53:18;65.03;;;34.17;;
40659;SDS011;26753;45.544;9.232;2024-01-30T06:55:45;67.32;;;33.92;;
40659;SDS011;26753;45.544;9.232;2024-01-30T06:58:11;68.57;;;34.28;;
40659;SDS011;26753;45.544;9.232;2024-01-30T07:00:41;64.10;;;33.35;;
40659;SDS011;26753;45.544;9.232;2024-01-30T07:03:07;62.58;;;33.22;;
40659;SDS011;26753;45.544;9.232;2024-01-30T07:05:33;69.25;;;33.53;;
40659;SDS011;26753;45.544;9.232;2024-01-30T07:07:59;68.03;;;33.85;;
40659;SDS011;26753;45.544;9.232;2024-01-30T07:10:33;64.50;;;34.35;;
40659;SDS011;26753;45.544;9.232;2024-01-30T07:13:02;66.10;;;34.42;;
40659;SDS011;26753;45.544;9.232;2024-01-30T07:15:33;61.65;;;33.65;;
40659;SDS011;26753;45.544;9.232;2024-01-30T07:17:59;60.67;;;33.13;;
40659;SDS011;26753;45.544;9.232;2024-01-30T07:20:31;70.07;;;33.88;;
40659;SDS011;26753;45.544;9.232;2024-01-30T07:23:00;59.42;;;31.45;;
40659;SDS011;26753;45.544;9.232;2024-01-30T07:25:27;63.03;;;31.77;;
40659;SDS011;26753;45.544;9.232;2024-01-30T07:27:54;65.65;;;32.65;;
40659;SDS011;26753;45.544;9.232;2024-01-30T07:30:21;61.65;;;32.10;;
40659;SDS011;26753;45.544;9.232;2024-01-30T07:32:48;59.70;;;32.42;;
40659;SDS011;26753;45.544;9.232;2024-01-30T07:35:14;57.20;;;30.35;;
40659;SDS011;26753;45.544;9.232;2024-01-30T07:37:40;56.47;;;30.50;;
40659;SDS011;26753;45.544;9.232;2024-01-30T07:42:57;59.55;;;30.75;;
40659;SDS011;26753;45.544;9.232;2024-01-30T07:45:26;55.45;;;30.38;;
40659;SDS011;26753;45.544;9.232;2024-01-30T07:47:58;63.17;;;31.67;;
40659;SDS011;26753;45.544;9.232;2024-01-30T07:50:27;62.10;;;31.65;;
40659;SDS011;26753;45.544;9.232;2024-01-30T07:53:00;58.63;;;31.00;;
40659;SDS011;26753;45.544;9.232;2024-01-30T07:55:35;58.38;;;32.40;;
40659;SDS011;26753;45.544;9.232;2024-01-30T07:58:03;59.15;;;30.58;;
40659;SDS011;26753;45.544;9.232;2024-01-30T08:00:32;57.40;;;30.02;;
40659;SDS011;26753;45.544;9.232;2024-01-30T08:02:58;62.70;;;30.27;;
40659;SDS011;26753;45.544;9.232;2024-01-30T08:05:25;56.50;;;29.80;;
40659;SDS011;26753;45.544;9.232;2024-01-30T08:07:51;58.53;;;30.73;;
40659;SDS011;26753;45.544;9.232;2024-01-30T08:10:17;56.17;;;30.30;;
40659;SDS011;26753;45.544;9.232;2024-01-30T08:12:44;59.20;;;30.50;;
40659;SDS011;26753;45.544;9.232;2024-01-30T08:15:11;59.50;;;30.25;;
40659;SDS011;26753;45.544;9.232;2024-01-30T08:17:38;55.75;;;30.90;;
40659;SDS011;26753;45.544;9.232;2024-01-30T08:20:10;55.40;;;29.02;;
40659;SDS011;26753;45.544;9.232;2024-01-30T08:22:39;58.15;;;29.73;;
40659;SDS011;26753;45.544;9.232;2024-01-30T08:25:08;61.40;;;30.08;;
40659;SDS011;26753;45.544;9.232;2024-01-30T08:27:35;57.08;;;30.23;;
40659;SDS011;26753;45.544;9.232;2024-01-30T08:30:03;63.30;;;31.17;;
40659;SDS011;26753;45.544;9.232;2024-01-30T08:32:29;57.50;;;30.20;;
40659;SDS011;26753;45.544;9.232;2024-01-30T08:34:55;57.33;;;29.95;;
40659;SDS011;26753;45.544;9.232;2024-01-30T08:37:21;58.35;;;31.52;;
40659;SDS011;26753;45.544;9.232;2024-01-30T08:39:48;56.00;;;30.02;;
40659;SDS011;26753;45.544;9.232;2024-01-30T08:42:14;58.40;;;30.63;;
40659;SDS011;26753;45.544;9.232;2024-01-30T08:44:47;56.60;;;30.30;;
40659;SDS011;26753;45.544;9.232;2024-01-30T08:47:16;56.03;;;29.98;;
40659;SDS011;26753;45.544;9.232;2024-01-30T08:49:46;57.85;;;30.15;;
40659;SDS011;26753;45.544;9.232;2024-01-30T08:52:20;61.15;;;30.75;;
40659;SDS011;26753;45.544;9.232;2024-01-30T08:54:46;59.47;;;30.35;;
40659;SDS011;26753;45.544;9.232;2024-01-30T09:06:45;62.60;;;31.40;;
40659;SDS011;26753;45.544;9.232;2024-01-30T09:09:14;56.78;;;31.05;;
40659;SDS011;26753;45.544;9.232;2024-01-30T09:11:40;56.03;;;29.90;;
40659;SDS011;26753;45.544;9.232;2024-01-30T09:14:06;57.80;;;31.05;;
40659;SDS011;26753;45.544;9.232;2024-01-30T09:16:42;66.18;;;31.20;;
40659;SDS011;26753;45.544;9.232;2024-01-30T09:19:13;61.67;;;32.05;;
40659;SDS011;26753;45.544;9.232;2024-01-30T09:21:48;67.25;;;31.08;;
40659;SDS011;26753;45.544;9.232;2024-01-30T09:24:17;56.97;;;31.75;;
40659;SDS011;26753;45.544;9.232;2024-01-30T09:26:51;61.80;;;31.77;;
40659;SDS011;26753;45.544;9.232;2024-01-30T09:44:54;56.20;;;30.80;;
40659;SDS011;26753;45.544;9.232;2024-01-30T09:47:36;60.22;;;31.02;;
40659;SDS011;26753;45.544;9.232;2024-01-30T09:50:06;55.40;;;30.98;;
40659;SDS011;26753;45.544;9.232;2024-01-30T09:52:35;59.33;;;31.92;;
40659;SDS011;26753;45.544;9.232;2024-01-30T09:55:02;54.03;;;30.65;;
40659;SDS011;26753;45.544;9.232;2024-01-30T09:57:29;53.22;;;30.63;;
40659;SDS011;26753;45.544;9.232;2024-01-30T09:59:55;56.05;;;31.75;;
40659;SDS011;26753;45.544;9.232;2024-01-30T10:02:24;54.83;;;31.27;;
40659;SDS011;26753;45.544;9.232;2024-01-30T10:04:51;56.97;;;30.77;;
40659;SDS011;26753;45.544;9.232;2024-01-30T10:07:18;61.08;;;30.83;;
40659;SDS011;26753;45.544;9.232;2024-01-30T10:09:44;58.88;;;31.27;;
40659;SDS011;26753;45.544;9.232;2024-01-30T10:12:14;61.55;;;31.83;;
40659;SDS011;26753;45.544;9.232;2024-01-30T10:14:40;59.42;;;30.33;;
40659;SDS011;26753;45.544;9.232;2024-01-30T10:17:09;59.53;;;30.35;;
40659;SDS011;26753;45.544;9.232;2024-01-30T10:19:36;56.72;;;30.08;;
40659;SDS011;26753;45.544;9.232;2024-01-30T10:22:03;51.65;;;30.17;;
40659;SDS011;26753;45.544;9.232;2024-01-30T10:24:29;52.70;;;30.23;;
40659;SDS011;26753;45.544;9.232;2024-01-30T10:27:05;60.58;;;29.45;;
40659;SDS011;26753;45.544;9.232;2024-01-30T10:29:32;54.97;;;28.67;;
40659;SDS011;26753;45.544;9.232;2024-01-30T10:31:59;59.20;;;28.40;;
40659;SDS011;26753;45.544;9.232;2024-01-30T10:34:37;59.15;;;28.00;;
40659;SDS011;26753;45.544;9.232;2024-01-30T10:39:44;56.83;;;27.95;;
40659;SDS011;26753;45.544;9.232;2024-01-30T10:42:28;55.78;;;27.75;;
40659;SDS011;26753;45.544;9.232;2024-01-30T10:45:02;50.58;;;27.15;;
40659;SDS011;26753;45.544;9.232;2024-01-30T10:47:44;57.30;;;27.52;;
40659;SDS011;26753;45.544;9.232;2024-01-30T10:50:15;53.28;;;28.20;;
40659;SDS011;26753;45.544;9.232;2024-01-30T10:53:01;51.45;;;27.77;;
40659;SDS011;26753;45.544;9.232;2024-01-30T10:55:38;55.30;;;27.80;;
40659;SDS011;26753;45.544;9.232;2024-01-30T10:58:04;61.50;;;28.20;;
40659;SDS011;26753;45.544;9.232;2024-01-30T11:00:31;42.83;;;26.75;;
40659;SDS011;26753;45.544;9.232;2024-01-30T11:02:59;51.33;;;27.55;;
40659;SDS011;26753;45.544;9.232;2024-01-30T11:05:28;56.65;;;27.90;;
40659;SDS011;26753;45.544;9.232;2024-01-30T11:08:10;53.80;;;28.75;;
40659;SDS011;26753;45.544;9.232;2024-01-30T11:10:54;58.05;;;31.85;;
40659;SDS011;26753;45.544;9.232;2024-01-30T11:16:00;64.82;;;29.73;;
40659;SDS011;26753;45.544;9.232;2024-01-30T11:18:36;57.03;;;28.15;;
40659;SDS011;26753;45.544;9.232;2024-01-30T11:21:04;52.58;;;29.42;;
40659;SDS011;26753;45.544;9.232;2024-01-30T11:23:30;51.10;;;28.05;;
40659;SDS011;26753;45.544;9.232;2024-01-30T11:26:01;50.83;;;28.95;;
40659;SDS011;26753;45.544;9.232;2024-01-30T11:28:35;52.75;;;29.23;;
40659;SDS011;26753;45.544;9.232;2024-01-30T11:31:06;49.03;;;28.63;;
40659;SDS011;26753;45.544;9.232;2024-01-30T11:33:32;50.53;;;29.15;;
40659;SDS011;26753;45.544;9.232;2024-01-30T11:36:04;50.17;;;28.67;;
40659;SDS011;26753;45.544;9.232;2024-01-30T11:39:12;47.75;;;28.10;;
40659;SDS011;26753;45.544;9.232;2024-01-30T11:41:41;56.88;;;30.33;;
40659;SDS011;26753;45.544;9.232;2024-01-30T11:44:24;58.60;;;29.48;;
40659;SDS011;26753;45.544;9.232;2024-01-30T11:46:52;47.30;;;29.70;;
40659;SDS011;26753;45.544;9.232;2024-01-30T11:49:24;52.90;;;28.73;;
40659;SDS011;26753;45.544;9.232;2024-01-30T11:52:05;49.67;;;29.35;;
40659;SDS011;26753;45.544;9.232;2024-01-30T11:54:32;53.75;;;30.58;;
40659;SDS011;26753;45.544;9.232;2024-01-30T11:57:15;48.88;;;29.83;;
40659;SDS011;26753;45.544;9.232;2024-01-30T12:00:14;54.00;;;30.35;;
40659;SDS011;26753;45.544;9.232;2024-01-30T12:03:05;51.63;;;29.58;;
40659;SDS011;26753;45.544;9.232;2024-01-30T12:06:05;53.13;;;31.33;;
40659;SDS011;26753;45.544;9.232;2024-01-30T12:08:27;58.38;;;32.28;;
40659;SDS011;26753;45.544;9.232;2024-01-30T12:10:59;54.58;;;31.98;;
40659;SDS011;26753;45.544;9.232;2024-01-30T12:13:27;57.40;;;32.85;;
40659;SDS011;26753;45.544;9.232;2024-01-30T12:15:57;55.75;;;31.63;;
40659;SDS011;26753;45.544;9.232;2024-01-30T12:18:28;51.03;;;31.73;;
40659;SDS011;26753;45.544;9.232;2024-01-30T12:21:07;50.35;;;30.23;;
40659;SDS011;26753;45.544;9.232;2024-01-30T12:23:40;50.45;;;29.73;;
40659;SDS011;26753;45.544;9.232;2024-01-30T12:26:26;48.10;;;28.65;;
40659;SDS011;26753;45.544;9.232;2024-01-30T12:28:58;48.90;;;27.73;;
40659;SDS011;26753;45.544;9.232;2024-01-30T12:31:31;47.03;;;28.27;;
40659;SDS011;26753;45.544;9.232;2024-01-30T12:34:01;47.83;;;29.13;;
40659;SDS011;26753;45.544;9.232;2024-01-30T12:36:26;48.38;;;29.48;;
40659;SDS011;26753;45.544;9.232;2024-01-30T12:38:56;52.42;;;31.10;;
40659;SDS011;26753;45.544;9.232;2024-01-30T12:41:22;47.58;;;29.42;;
40659;SDS011;26753;45.544;9.232;2024-01-30T12:43:55;44.65;;;28.15;;
40659;SDS011;26753;45.544;9.232;2024-01-30T12:46:29;40.95;;;26.27;;
40659;SDS011;26753;45.544;9.232;2024-01-30T12:49:04;45.03;;;27.80;;
40659;SDS011;26753;45.544;9.232;2024-01-30T12:51:42;50.67;;;28.60;;
40659;SDS011;26753;45.544;9.232;2024-01-30T12:57:05;41.70;;;26.92;;
40659;SDS011;26753;45.544;9.232;2024-01-30T12:59:34;39.45;;;25.92;;
40659;SDS011;26753;45.544;9.232;2024-01-30T13:02:03;35.85;;;24.40;;
40659;SDS011;26753;45.544;9.232;2024-01-30T13:04:29;37.95;;;25.77;;
40659;SDS011;26753;45.544;9.232;2024-01-30T13:07:07;35.78;;;24.35;;
40659;SDS011;26753;45.544;9.232;2024-01-30T13:09:36;42.20;;;25.48;;
40659;SDS011;26753;45.544;9.232;2024-01-30T13:12:03;38.75;;;25.50;;
40659;SDS011;26753;45.544;9.232;2024-01-30T13:18:23;60.90;;;30.40;;
40659;SDS011;26753;45.544;9.232;2024-01-30T13:20:55;32.05;;;21.52;;
40659;SDS011;26753;45.544;9.232;2024-01-30T13:23:20;34.33;;;21.48;;
40659;SDS011;26753;45.544;9.232;2024-01-30T13:25:49;31.55;;;20.80;;
40659;SDS011;26753;45.544;9.232;2024-01-30T13:28:15;28.98;;;20.00;;
40659;SDS011;26753;45.544;9.232;2024-01-30T13:30:41;26.85;;;19.52;;
40659;SDS011;26753;45.544;9.232;2024-01-30T13:33:06;28.88;;;19.75;;
40659;SDS011;26753;45.544;9.232;2024-01-30T13:35:32;28.45;;;18.90;;
40659;SDS011;26753;45.544;9.232;2024-01-30T13:37:58;26.13;;;18.50;;
40659;SDS011;26753;45.544;9.232;2024-01-30T13:40:24;25.45;;;17.92;;
40659;SDS011;26753;45.544;9.232;2024-01-30T13:42:50;25.85;;;17.48;;
40659;SDS011;26753;45.544;9.232;2024-01-30T13:45:16;24.65;;;17.77;;
40659;SDS011;26753;45.544;9.232;2024-01-30T13:47:41;25.05;;;18.65;;
40659;SDS011;26753;45.544;9.232;2024-01-30T13:50:07;29.92;;;19.80;;
40659;SDS011;26753;45.544;9.232;2024-01-30T13:52:34;26.63;;;19.17;;
40659;SDS011;26753;45.544;9.232;2024-01-30T13:55:03;27.40;;;19.08;;
40659;SDS011;26753;45.544;9.232;2024-01-30T13:57:35;25.98;;;19.25;;
40659;SDS011;26753;45.544;9.232;2024-01-30T14:00:04;23.20;;;18.23;;
40659;SDS011;26753;45.544;9.232;2024-01-30T14:02:37;24.50;;;17.98;;
40659;SDS011;26753;45.544;9.232;2024-01-30T14:05:04;22.50;;;17.70;;
40659;SDS011;26753;45.544;9.232;2024-01-30T14:07:33;22.52;;;16.73;;
40659;SDS011;26753;45.544;9.232;2024-01-30T14:09:59;21.67;;;16.25;;
40659;SDS011;26753;45.544;9.232;2024-01-30T14:12:25;21.00;;;16.23;;
40659;SDS011;26753;45.544;9.232;2024-01-30T14:14:51;22.40;;;17.35;;
40659;SDS011;26753;45.544;9.232;2024-01-30T14:17:17;25.02;;;17.13;;
40659;SDS011;26753;45.544;9.232;2024-01-30T14:19:43;24.52;;;17.15;;
40659;SDS011;26753;45.544;9.232;2024-01-30T14:22:23;22.10;;;17.27;;
40659;SDS011;26753;45.544;9.232;2024-01-30T14:25:12;22.98;;;16.60;;
40659;SDS011;26753;45.544;9.232;2024-01-30T14:28:07;24.38;;;17.15;;
40659;SDS011;26753;45.544;9.232;2024-01-30T14:31:01;24.65;;;16.90;;
40659;SDS011;26753;45.544;9.232;2024-01-30T14:33:39;22.05;;;15.60;;
40659;SDS011;26753;45.544;9.232;2024-01-30T14:36:05;20.40;;;15.88;;
40659;SDS011;26753;45.544;9.232;2024-01-30T14:38:45;23.83;;;16.10;;
40659;SDS011;26753;45.544;9.232;2024-01-30T14:44:22;27.70;;;17.15;;
40659;SDS011;26753;45.544;9.232;2024-01-30T14:47:09;24.02;;;17.25;;
40659;SDS011;26753;45.544;9.232;2024-01-30T14:49:38;22.88;;;16.67;;
40659;SDS011;26753;45.544;9.232;2024-01-30T14:52:11;24.50;;;16.98;;
40659;SDS011;26753;45.544;9.232;2024-01-30T14:54:39;27.17;;;18.33;;
40659;SDS011;26753;45.544;9.232;2024-01-30T14:57:05;24.55;;;17.80;;
40659;SDS011;26753;45.544;9.232;2024-01-30T14:59:33;26.40;;;18.42;;
40659;SDS011;26753;45.544;9.232;2024-01-30T15:02:04;31.08;;;19.35;;
40659;SDS011;26753;45.544;9.232;2024-01-30T15:04:52;32.67;;;20.27;;
40659;SDS011;26753;45.544;9.232;2024-01-30T15:07:18;28.40;;;20.45;;
40659;SDS011;26753;45.544;9.232;2024-01-30T15:09:50;30.48;;;21.95;;
40659;SDS011;26753;45.544;9.232;2024-01-30T15:12:18;36.20;;;22.90;;
40659;SDS011;26753;45.544;9.232;2024-01-30T15:14:44;34.92;;;24.15;;
40659;SDS011;26753;45.544;9.232;2024-01-30T15:17:21;37.03;;;23.65;;
40659;SDS011;26753;45.544;9.232;2024-01-30T15:19:47;35.13;;;24.08;;
40659;SDS011;26753;45.544;9.232;2024-01-30T15:22:13;43.60;;;25.05;;
40659;SDS011;26753;45.544;9.232;2024-01-30T15:24:46;45.63;;;26.23;;
40659;SDS011;26753;45.544;9.232;2024-01-30T15:27:12;40.03;;;25.77;;
40659;SDS011;26753;45.544;9.232;2024-01-30T15:29:38;40.20;;;25.65;;
40659;SDS011;26753;45.544;9.232;2024-01-30T15:32:07;40.35;;;26.10;;
40659;SDS011;26753;45.544;9.232;2024-01-30T15:34:33;40.08;;;26.10;;
40659;SDS011;26753;45.544;9.232;2024-01-30T15:36:58;47.60;;;28.90;;
40659;SDS011;26753;45.544;9.232;2024-01-30T15:39:30;47.83;;;28.85;;
40659;SDS011;26753;45.544;9.232;2024-01-30T15:42:09;50.38;;;29.85;;
40659;SDS011;26753;45.544;9.232;2024-01-30T15:44:38;45.55;;;29.45;;
40659;SDS011;26753;45.544;9.232;2024-01-30T15:47:04;46.10;;;30.25;;
40659;SDS011;26753;45.544;9.232;2024-01-30T15:49:30;43.42;;;28.77;;
40659;SDS011;26753;45.544;9.232;2024-01-30T15:51:58;45.47;;;29.60;;
40659;SDS011;26753;45.544;9.232;2024-01-30T15:54:41;48.50;;;29.63;;
40659;SDS011;26753;45.544;9.232;2024-01-30T15:57:14;48.78;;;29.50;;
40659;SDS011;26753;45.544;9.232;2024-01-30T15:59:41;46.10;;;29.50;;
40659;SDS011;26753;45.544;9.232;2024-01-30T16:02:07;49.83;;;29.85;;
40659;SDS011;26753;45.544;9.232;2024-01-30T16:04:33;54.88;;;31.02;;
40659;SDS011;26753;45.544;9.232;2024-01-30T16:07:02;51.08;;;30.77;;
40659;SDS011;26753;45.544;9.232;2024-01-30T16:09:37;55.42;;;31.08;;
40659;SDS011;26753;45.544;9.232;2024-01-30T16:12:03;59.22;;;31.90;;
40659;SDS011;26753;45.544;9.232;2024-01-30T16:14:29;53.67;;;31.77;;
40659;SDS011;26753;45.544;9.232;2024-01-30T16:16:59;56.10;;;32.75;;
40659;SDS011;26753;45.544;9.232;2024-01-30T16:19:30;57.95;;;32.08;;
40659;SDS011;26753;45.544;9.232;2024-01-30T16:22:27;55.88;;;33.08;;
40659;SDS011;26753;45.544;9.232;2024-01-30T16:25:11;60.53;;;34.17;;
40659;SDS011;26753;45.544;9.232;2024-01-30T16:27:43;61.83;;;34.20;;
40659;SDS011;26753;45.544;9.232;2024-01-30T16:30:36;163.85;;;36.97;;
40659;SDS011;26753;45.544;9.232;2024-01-30T16:33:02;68.32;;;35.20;;
40659;SDS011;26753;45.544;9.232;2024-01-30T16:35:28;62.58;;;33.60;;
40659;SDS011;26753;45.544;9.232;2024-01-30T16:38:08;63.88;;;33.53;;
40659;SDS011;26753;45.544;9.232;2024-01-30T16:40:40;60.42;;;32.50;;
40659;SDS011;26753;45.544;9.232;2024-01-30T16:43:09;63.03;;;32.85;;
40659;SDS011;26753;45.544;9.232;2024-01-30T16:45:39;59.25;;;33.08;;
40659;SDS011;26753;45.544;9.232;2024-01-30T16:48:17;67.95;;;35.20;;
40659;SDS011;26753;45.544;9.232;2024-01-30T16:50:45;64.78;;;35.78;;
40659;SDS011;26753;45.544;9.232;2024-01-30T16:53:13;66.07;;;36.40;;
40659;SDS011;26753;45.544;9.232;2024-01-30T16:55:39;66.68;;;36.00;;
40659;SDS011;26753;45.544;9.232;2024-01-30T16:58:05;67.82;;;36.42;;
40659;SDS011;26753;45.544;9.232;2024-01-30T17:00:33;70.60;;;37.40;;
40659;SDS011;26753;45.544;9.232;2024-01-30T17:02:59;69.95;;;37.33;;
40659;SDS011;26753;45.544;9.232;2024-01-30T17:05:28;78.97;;;39.65;;
40659;SDS011;26753;45.544;9.232;2024-01-30T17:07:53;77.60;;;40.22;;
40659;SDS011;26753;45.544;9.232;2024-01-30T17:10:20;83.22;;;42.25;;
40659;SDS011;26753;45.544;9.232;2024-01-30T17:12:46;88.72;;;45.30;;
40659;SDS011;26753;45.544;9.232;2024-01-30T17:15:11;87.20;;;42.65;;
40659;SDS011;26753;45.544;9.232;2024-01-30T17:17:37;76.85;;;40.67;;
40659;SDS011;26753;45.544;9.232;2024-01-30T17:20:04;79.88;;;42.15;;
40659;SDS011;26753;45.544;9.232;2024-01-30T17:22:30;81.38;;;40.20;;
40659;SDS011;26753;45.544;9.232;2024-01-30T17:24:56;82.18;;;42.20;;
40659;SDS011;26753;45.544;9.232;2024-01-30T17:27:22;87.45;;;41.70;;
40659;SDS011;26753;45.544;9.232;2024-01-30T17:29:48;81.20;;;42.70;;
40659;SDS011;26753;45.544;9.232;2024-01-30T17:32:14;83.00;;;43.03;;
40659;SDS011;26753;45.544;9.232;2024-01-30T17:34:39;87.07;;;42.75;;
40659;SDS011;26753;45.544;9.232;2024-01-30T17:37:05;82.93;;;43.03;;
40659;SDS011;26753;45.544;9.232;2024-01-30T17:39:31;87.30;;;43.22;;
40659;SDS011;26753;45.544;9.232;2024-01-30T17:41:57;87.70;;;41.75;;
40659;SDS011;26753;45.544;9.232;2024-01-30T17:44:23;78.05;;;41.55;;
40659;SDS011;26753;45.544;9.232;2024-01-30T17:46:50;87.63;;;43.63;;
40659;SDS011;26753;45.544;9.232;2024-01-30T17:49:16;85.70;;;43.60;;
40659;SDS011;26753;45.544;9.232;2024-01-30T17:51:42;85.90;;;42.22;;
40659;SDS011;26753;45.544;9.232;2024-01-30T17:54:07;96.43;;;44.70;;
40659;SDS011;26753;45.544;9.232;2024-01-30T17:56:33;89.45;;;43.83;;
40659;SDS011;26753;45.544;9.232;2024-01-30T17:59:00;83.88;;;43.85;;
40659;SDS011;26753;45.544;9.232;2024-01-30T18:01:26;84.25;;;43.58;;
40659;SDS011;26753;45.544;9.232;2024-01-30T18:03:54;85.45;;;45.10;;
40659;SDS011;26753;45.544;9.232;2024-01-30T18:06:23;92.68;;;44.00;;
40659;SDS011;26753;45.544;9.232;2024-01-30T18:08:49;88.85;;;45.78;;
40659;SDS011;26753;45.544;9.232;2024-01-30T18:11:16;90.43;;;45.58;;
40659;SDS011;26753;45.544;9.232;2024-01-30T18:13:42;88.47;;;45.20;;
40659;SDS011;26753;45.544;9.232;2024-01-30T18:16:07;91.15;;;44.95;;
40659;SDS011;26753;45.544;9.232;2024-01-30T18:18:36;93.07;;;46.33;;
40659;SDS011;26753;45.544;9.232;2024-01-30T18:21:02;88.07;;;44.85;;
40659;SDS011;26753;45.544;9.232;2024-01-30T18:23:32;92.93;;;46.30;;
40659;SDS011;26753;45.544;9.232;2024-01-30T18:25:59;92.05;;;46.15;;